Terminal Aerodrome Forecast
Issued by NWS

Home | Current Version | Previous Version | Text Only | Print | Product List | Glossary Off
Versions: 1 2 3 4 5 6 7 8 9 10 11 12 13

000
FTUS43 KOAX 201120
TAFCDR
TAF
KCDR 201120Z 2012/2112 22006KT P6SM SKC
     FM201900 20008KT P6SM SCT100
     FM210200 23008KT P6SM BKN080=

USA.gov is the U.S. government's official web portal to all federal, state and local government web resources and services.